sensor_id;sensor_type;location;lat;lon;timestamp;temperature;humidity
11744;DHT22;5929;51.906;7.674;2023-06-22T00:00:13;21.30;98.50
11744;DHT22;5929;51.906;7.674;2023-06-22T00:02:40;21.20;98.50
11744;DHT22;5929;51.906;7.674;2023-06-22T00:05:07;21.20;98.70
11744;DHT22;5929;51.906;7.674;2023-06-22T00:07:35;21.20;98.90
11744;DHT22;5929;51.906;7.674;2023-06-22T00:10:02;21.10;98.90
11744;DHT22;5929;51.906;7.674;2023-06-22T00:12:29;21.10;99.10
11744;DHT22;5929;51.906;7.674;2023-06-22T00:15:00;21.00;99.20
11744;DHT22;5929;51.906;7.674;2023-06-22T00:17:26;21.00;99.50
11744;DHT22;5929;51.906;7.674;2023-06-22T00:19:56;21.00;99.70
11744;DHT22;5929;51.906;7.674;2023-06-22T00:22:24;21.00;99.70
11744;DHT22;5929;51.906;7.674;2023-06-22T00:24:55;20.90;99.90
11744;DHT22;5929;51.906;7.674;2023-06-22T00:27:22;20.70;99.90
11744;DHT22;5929;51.906;7.674;2023-06-22T00:29:51;20.70;99.90
11744;DHT22;5929;51.906;7.674;2023-06-22T00:32:18;20.70;99.90
11744;DHT22;5929;51.906;7.674;2023-06-22T00:34:45;20.70;99.90
11744;DHT22;5929;51.906;7.674;2023-06-22T00:37:11;20.70;99.90
11744;DHT22;5929;51.906;7.674;2023-06-22T00:39:41;20.70;99.90
11744;DHT22;5929;51.906;7.674;2023-06-22T00:42:09;20.60;99.90
11744;DHT22;5929;51.906;7.674;2023-06-22T00:44:36;20.60;99.90
11744;DHT22;5929;51.906;7.674;2023-06-22T00:47:03;20.70;99.90
11744;DHT22;5929;51.906;7.674;2023-06-22T00:49:32;20.60;99.90
11744;DHT22;5929;51.906;7.674;2023-06-22T00:51:59;20.60;99.90
11744;DHT22;5929;51.906;7.674;2023-06-22T00:54:26;20.60;99.90
11744;DHT22;5929;51.906;7.674;2023-06-22T00:56:54;20.40;99.90
11744;DHT22;5929;51.906;7.674;2023-06-22T00:59:24;20.40;99.90
11744;DHT22;5929;51.906;7.674;2023-06-22T01:01:52;20.40;99.90
11744;DHT22;5929;51.906;7.674;2023-06-22T01:04:19;20.50;99.90
11744;DHT22;5929;51.906;7.674;2023-06-22T01:06:52;20.50;99.90
11744;DHT22;5929;51.906;7.674;2023-06-22T01:09:29;20.50;99.90
11744;DHT22;5929;51.906;7.674;2023-06-22T01:12:01;20.40;99.90
11744;DHT22;5929;51.906;7.674;2023-06-22T01:14:34;20.30;99.90
11744;DHT22;5929;51.906;7.674;2023-06-22T01:17:05;20.30;99.90
11744;DHT22;5929;51.906;7.674;2023-06-22T01:19:39;20.10;99.90
11744;DHT22;5929;51.906;7.674;2023-06-22T01:22:10;20.10;99.90
11744;DHT22;5929;51.906;7.674;2023-06-22T01:24:48;20.10;99.90
11744;DHT22;5929;51.906;7.674;2023-06-22T01:27:28;20.10;99.90
11744;DHT22;5929;51.906;7.674;2023-06-22T01:29:59;20.00;99.90
11744;DHT22;5929;51.906;7.674;2023-06-22T01:32:31;19.90;99.90
11744;DHT22;5929;51.906;7.674;2023-06-22T01:35:00;19.90;99.90
11744;DHT22;5929;51.906;7.674;2023-06-22T01:37:28;19.80;99.90
11744;DHT22;5929;51.906;7.674;2023-06-22T01:39:58;19.80;99.90
11744;DHT22;5929;51.906;7.674;2023-06-22T01:42:26;19.80;99.90
11744;DHT22;5929;51.906;7.674;2023-06-22T01:44:56;19.70;99.90
11744;DHT22;5929;51.906;7.674;2023-06-22T01:47:25;19.70;99.90
11744;DHT22;5929;51.906;7.674;2023-06-22T01:49:53;19.70;99.90
11744;DHT22;5929;51.906;7.674;2023-06-22T01:52:22;19.70;99.90
11744;DHT22;5929;51.906;7.674;2023-06-22T01:54:49;19.70;99.90
11744;DHT22;5929;51.906;7.674;2023-06-22T01:57:16;19.60;99.90
11744;DHT22;5929;51.906;7.674;2023-06-22T01:59:52;19.70;99.90
11744;DHT22;5929;51.906;7.674;2023-06-22T02:02:21;19.70;99.90
11744;DHT22;5929;51.906;7.674;2023-06-22T02:04:58;19.70;99.90
11744;DHT22;5929;51.906;7.674;2023-06-22T02:07:29;19.70;99.90
11744;DHT22;5929;51.906;7.674;2023-06-22T02:09:59;19.60;99.90
11744;DHT22;5929;51.906;7.674;2023-06-22T02:12:29;19.60;99.90
11744;DHT22;5929;51.906;7.674;2023-06-22T02:14:57;19.70;99.90
11744;DHT22;5929;51.906;7.674;2023-06-22T02:17:26;19.60;99.90
11744;DHT22;5929;51.906;7.674;2023-06-22T02:19:53;19.50;99.90
11744;DHT22;5929;51.906;7.674;2023-06-22T02:22:21;19.40;99.90
11744;DHT22;5929;51.906;7.674;2023-06-22T02:24:49;19.40;99.90
11744;DHT22;5929;51.906;7.674;2023-06-22T02:27:16;19.40;99.90
11744;DHT22;5929;51.906;7.674;2023-06-22T02:29:42;19.40;99.90
11744;DHT22;5929;51.906;7.674;2023-06-22T02:32:09;19.40;99.90
11744;DHT22;5929;51.906;7.674;2023-06-22T02:34:36;19.40;99.90
11744;DHT22;5929;51.906;7.674;2023-06-22T02:37:03;19.30;99.90
11744;DHT22;5929;51.906;7.674;2023-06-22T02:39:32;19.30;99.90
11744;DHT22;5929;51.906;7.674;2023-06-22T02:42:01;19.30;99.90
11744;DHT22;5929;51.906;7.674;2023-06-22T02:44:28;19.30;99.90
11744;DHT22;5929;51.906;7.674;2023-06-22T02:46:55;19.20;99.90
11744;DHT22;5929;51.906;7.674;2023-06-22T02:49:22;19.10;99.90
11744;DHT22;5929;51.906;7.674;2023-06-22T02:51:49;19.10;99.90
11744;DHT22;5929;51.906;7.674;2023-06-22T02:54:16;19.20;99.90
11744;DHT22;5929;51.906;7.674;2023-06-22T02:56:44;19.10;99.90
11744;DHT22;5929;51.906;7.674;2023-06-22T02:59:11;19.10;99.90
11744;DHT22;5929;51.906;7.674;2023-06-22T03:01:38;19.10;99.90
11744;DHT22;5929;51.906;7.674;2023-06-22T03:04:07;19.00;99.90
11744;DHT22;5929;51.906;7.674;2023-06-22T03:06:34;18.90;99.90
11744;DHT22;5929;51.906;7.674;2023-06-22T03:09:02;18.90;99.90
11744;DHT22;5929;51.906;7.674;2023-06-22T03:11:33;18.80;99.90
11744;DHT22;5929;51.906;7.674;2023-06-22T03:14:01;18.80;99.90
11744;DHT22;5929;51.906;7.674;2023-06-22T03:16:28;18.90;99.90
11744;DHT22;5929;51.906;7.674;2023-06-22T03:18:55;18.90;99.90
11744;DHT22;5929;51.906;7.674;2023-06-22T03:21:23;18.80;99.90
11744;DHT22;5929;51.906;7.674;2023-06-22T03:23:50;18.80;99.90
11744;DHT22;5929;51.906;7.674;2023-06-22T03:26:17;18.80;99.90
11744;DHT22;5929;51.906;7.674;2023-06-22T03:28:44;18.90;99.90
11744;DHT22;5929;51.906;7.674;2023-06-22T03:31:12;19.00;99.90
11744;DHT22;5929;51.906;7.674;2023-06-22T03:33:39;18.90;99.90
11744;DHT22;5929;51.906;7.674;2023-06-22T03:36:06;18.90;99.90
11744;DHT22;5929;51.906;7.674;2023-06-22T03:38:33;18.90;99.90
11744;DHT22;5929;51.906;7.674;2023-06-22T03:41:00;18.90;99.90
11744;DHT22;5929;51.906;7.674;2023-06-22T03:43:26;18.90;99.90
11744;DHT22;5929;51.906;7.674;2023-06-22T03:45:53;19.00;99.90
11744;DHT22;5929;51.906;7.674;2023-06-22T03:48:21;19.10;99.90
11744;DHT22;5929;51.906;7.674;2023-06-22T03:50:48;19.00;99.90
11744;DHT22;5929;51.906;7.674;2023-06-22T03:53:15;18.90;99.90
11744;DHT22;5929;51.906;7.674;2023-06-22T03:55:48;18.80;99.90
11744;DHT22;5929;51.906;7.674;2023-06-22T03:58:16;18.90;99.90
11744;DHT22;5929;51.906;7.674;2023-06-22T04:00:44;18.90;99.90
11744;DHT22;5929;51.906;7.674;2023-06-22T04:03:15;18.90;99.90
11744;DHT22;5929;51.906;7.674;2023-06-22T04:05:45;18.90;99.90
11744;DHT22;5929;51.906;7.674;2023-06-22T04:08:13;19.00;99.90
11744;DHT22;5929;51.906;7.674;2023-06-22T04:10:40;19.10;99.90
11744;DHT22;5929;51.906;7.674;2023-06-22T04:13:07;19.10;99.90
11744;DHT22;5929;51.906;7.674;2023-06-22T04:15:36;19.10;99.90
11744;DHT22;5929;51.906;7.674;2023-06-22T04:18:03;19.10;99.90
11744;DHT22;5929;51.906;7.674;2023-06-22T04:20:31;19.10;99.90
11744;DHT22;5929;51.906;7.674;2023-06-22T04:22:59;19.10;99.90
11744;DHT22;5929;51.906;7.674;2023-06-22T04:25:26;19.10;99.90
11744;DHT22;5929;51.906;7.674;2023-06-22T04:27:53;19.10;99.90
11744;DHT22;5929;51.906;7.674;2023-06-22T04:30:20;19.20;99.90
11744;DHT22;5929;51.906;7.674;2023-06-22T04:32:47;19.20;99.90
11744;DHT22;5929;51.906;7.674;2023-06-22T04:35:23;19.20;99.90
11744;DHT22;5929;51.906;7.674;2023-06-22T04:37:50;19.30;99.90
11744;DHT22;5929;51.906;7.674;2023-06-22T04:40:21;19.30;99.90
11744;DHT22;5929;51.906;7.674;2023-06-22T04:42:48;19.40;99.90
11744;DHT22;5929;51.906;7.674;2023-06-22T04:45:21;19.40;99.90
11744;DHT22;5929;51.906;7.674;2023-06-22T04:47:48;19.40;99.90
11744;DHT22;5929;51.906;7.674;2023-06-22T04:50:17;19.50;99.90
11744;DHT22;5929;51.906;7.674;2023-06-22T04:52:46;19.50;99.90
11744;DHT22;5929;51.906;7.674;2023-06-22T04:55:14;19.50;99.90
11744;DHT22;5929;51.906;7.674;2023-06-22T04:57:48;19.50;99.90
11744;DHT22;5929;51.906;7.674;2023-06-22T05:00:19;19.60;99.90
11744;DHT22;5929;51.906;7.674;2023-06-22T05:02:47;19.60;99.90
11744;DHT22;5929;51.906;7.674;2023-06-22T05:05:15;19.60;99.90
11744;DHT22;5929;51.906;7.674;2023-06-22T05:07:43;19.50;99.90
11744;DHT22;5929;51.906;7.674;2023-06-22T05:10:11;19.50;99.90
11744;DHT22;5929;51.906;7.674;2023-06-22T05:12:39;19.60;99.90
11744;DHT22;5929;51.906;7.674;2023-06-22T05:15:08;19.60;99.90
11744;DHT22;5929;51.906;7.674;2023-06-22T05:17:35;19.80;99.90
11744;DHT22;5929;51.906;7.674;2023-06-22T05:20:09;19.90;99.90
11744;DHT22;5929;51.906;7.674;2023-06-22T05:22:36;20.00;99.90
11744;DHT22;5929;51.906;7.674;2023-06-22T05:25:03;20.10;99.90
11744;DHT22;5929;51.906;7.674;2023-06-22T05:27:30;20.20;99.90
11744;DHT22;5929;51.906;7.674;2023-06-22T05:29:57;20.30;99.90
11744;DHT22;5929;51.906;7.674;2023-06-22T05:32:25;20.40;99.90
11744;DHT22;5929;51.906;7.674;2023-06-22T05:34:52;20.40;99.90
11744;DHT22;5929;51.906;7.674;2023-06-22T05:37:19;20.50;99.90
11744;DHT22;5929;51.906;7.674;2023-06-22T05:39:46;20.50;99.90
11744;DHT22;5929;51.906;7.674;2023-06-22T05:42:12;20.50;99.90
11744;DHT22;5929;51.906;7.674;2023-06-22T05:44:39;20.70;99.90
11744;DHT22;5929;51.906;7.674;2023-06-22T05:47:06;20.90;99.90
11744;DHT22;5929;51.906;7.674;2023-06-22T05:49:34;20.90;99.90
11744;DHT22;5929;51.906;7.674;2023-06-22T05:52:01;21.00;99.90
11744;DHT22;5929;51.906;7.674;2023-06-22T05:54:28;21.10;99.90
11744;DHT22;5929;51.906;7.674;2023-06-22T05:56:55;21.20;99.90
11744;DHT22;5929;51.906;7.674;2023-06-22T05:59:22;21.30;99.90
11744;DHT22;5929;51.906;7.674;2023-06-22T06:01:49;21.40;99.90
11744;DHT22;5929;51.906;7.674;2023-06-22T06:04:17;21.40;99.90
11744;DHT22;5929;51.906;7.674;2023-06-22T06:06:45;21.50;99.90
11744;DHT22;5929;51.906;7.674;2023-06-22T06:09:13;21.50;99.90
11744;DHT22;5929;51.906;7.674;2023-06-22T06:11:40;21.50;99.90
11744;DHT22;5929;51.906;7.674;2023-06-22T06:14:07;21.50;99.90
11744;DHT22;5929;51.906;7.674;2023-06-22T06:16:34;21.40;99.90
11744;DHT22;5929;51.906;7.674;2023-06-22T06:19:01;21.40;99.90
11744;DHT22;5929;51.906;7.674;2023-06-22T06:21:28;21.50;99.90
11744;DHT22;5929;51.906;7.674;2023-06-22T06:23:56;21.40;99.90
11744;DHT22;5929;51.906;7.674;2023-06-22T06:26:24;21.40;99.90
11744;DHT22;5929;51.906;7.674;2023-06-22T06:28:55;21.40;99.90
11744;DHT22;5929;51.906;7.674;2023-06-22T06:31:22;21.30;99.90
11744;DHT22;5929;51.906;7.674;2023-06-22T06:33:49;21.30;99.90
11744;DHT22;5929;51.906;7.674;2023-06-22T06:36:16;21.30;99.90
11744;DHT22;5929;51.906;7.674;2023-06-22T06:38:43;21.40;99.90
11744;DHT22;5929;51.906;7.674;2023-06-22T06:41:11;21.50;99.90
11744;DHT22;5929;51.906;7.674;2023-06-22T06:43:41;21.50;99.90
11744;DHT22;5929;51.906;7.674;2023-06-22T06:46:09;21.50;99.90
11744;DHT22;5929;51.906;7.674;2023-06-22T06:48:35;21.60;99.90
11744;DHT22;5929;51.906;7.674;2023-06-22T06:51:02;21.70;99.90
11744;DHT22;5929;51.906;7.674;2023-06-22T06:53:29;21.70;99.90
11744;DHT22;5929;51.906;7.674;2023-06-22T06:55:56;21.80;99.90
11744;DHT22;5929;51.906;7.674;2023-06-22T06:58:24;21.90;99.90
11744;DHT22;5929;51.906;7.674;2023-06-22T07:00:51;21.80;99.90
11744;DHT22;5929;51.906;7.674;2023-06-22T07:03:18;21.80;99.90
11744;DHT22;5929;51.906;7.674;2023-06-22T07:05:45;22.00;99.90
11744;DHT22;5929;51.906;7.674;2023-06-22T07:08:12;22.10;99.90
11744;DHT22;5929;51.906;7.674;2023-06-22T07:10:38;22.00;99.90
11744;DHT22;5929;51.906;7.674;2023-06-22T07:13:05;22.10;99.90
11744;DHT22;5929;51.906;7.674;2023-06-22T07:15:33;22.10;99.90
11744;DHT22;5929;51.906;7.674;2023-06-22T07:18:00;22.20;99.90
11744;DHT22;5929;51.906;7.674;2023-06-22T07:20:27;22.20;99.90
11744;DHT22;5929;51.906;7.674;2023-06-22T07:22:54;22.10;99.90
11744;DHT22;5929;51.906;7.674;2023-06-22T07:25:21;22.10;99.90
11744;DHT22;5929;51.906;7.674;2023-06-22T07:27:57;22.00;99.90
11744;DHT22;5929;51.906;7.674;2023-06-22T07:30:25;21.90;99.90
11744;DHT22;5929;51.906;7.674;2023-06-22T07:32:53;21.90;99.90
11744;DHT22;5929;51.906;7.674;2023-06-22T07:35:20;22.00;99.90
11744;DHT22;5929;51.906;7.674;2023-06-22T07:37:47;21.90;99.90
11744;DHT22;5929;51.906;7.674;2023-06-22T07:40:14;22.00;99.90
11744;DHT22;5929;51.906;7.674;2023-06-22T07:42:41;21.90;99.90
11744;DHT22;5929;51.906;7.674;2023-06-22T07:45:08;22.00;99.90
11744;DHT22;5929;51.906;7.674;2023-06-22T07:47:35;22.00;99.90
11744;DHT22;5929;51.906;7.674;2023-06-22T07:50:06;22.00;99.90
11744;DHT22;5929;51.906;7.674;2023-06-22T07:52:33;22.00;99.90
11744;DHT22;5929;51.906;7.674;2023-06-22T07:54:59;22.00;99.90
11744;DHT22;5929;51.906;7.674;2023-06-22T07:57:28;22.00;99.90
11744;DHT22;5929;51.906;7.674;2023-06-22T07:59:59;22.00;99.90
11744;DHT22;5929;51.906;7.674;2023-06-22T08:02:25;21.90;99.90
11744;DHT22;5929;51.906;7.674;2023-06-22T08:04:52;22.00;99.90
11744;DHT22;5929;51.906;7.674;2023-06-22T08:07:20;22.00;99.90
11744;DHT22;5929;51.906;7.674;2023-06-22T08:09:48;22.00;99.90
11744;DHT22;5929;51.906;7.674;2023-06-22T08:12:15;21.90;99.90
11744;DHT22;5929;51.906;7.674;2023-06-22T08:14:43;21.90;99.90
11744;DHT22;5929;51.906;7.674;2023-06-22T08:17:14;21.90;99.90
11744;DHT22;5929;51.906;7.674;2023-06-22T08:19:44;22.00;99.90
11744;DHT22;5929;51.906;7.674;2023-06-22T08:22:10;22.00;99.90
11744;DHT22;5929;51.906;7.674;2023-06-22T08:24:38;22.00;99.90
11744;DHT22;5929;51.906;7.674;2023-06-22T08:27:07;22.10;99.90
11744;DHT22;5929;51.906;7.674;2023-06-22T08:29:35;22.30;99.90
11744;DHT22;5929;51.906;7.674;2023-06-22T08:32:02;22.30;99.90
11744;DHT22;5929;51.906;7.674;2023-06-22T08:34:29;22.30;99.90
11744;DHT22;5929;51.906;7.674;2023-06-22T08:36:56;22.30;99.90
11744;DHT22;5929;51.906;7.674;2023-06-22T08:39:23;22.30;99.90
11744;DHT22;5929;51.906;7.674;2023-06-22T08:41:51;22.30;99.90
11744;DHT22;5929;51.906;7.674;2023-06-22T08:44:18;22.40;99.90
11744;DHT22;5929;51.906;7.674;2023-06-22T08:46:46;22.40;99.90
11744;DHT22;5929;51.906;7.674;2023-06-22T08:49:12;22.40;99.90
11744;DHT22;5929;51.906;7.674;2023-06-22T08:51:39;22.50;99.90
11744;DHT22;5929;51.906;7.674;2023-06-22T08:54:06;22.80;99.90
11744;DHT22;5929;51.906;7.674;2023-06-22T08:56:33;23.10;99.90
11744;DHT22;5929;51.906;7.674;2023-06-22T08:59:01;23.20;99.90
11744;DHT22;5929;51.906;7.674;2023-06-22T09:01:28;23.20;99.90
11744;DHT22;5929;51.906;7.674;2023-06-22T09:03:55;23.20;99.90
11744;DHT22;5929;51.906;7.674;2023-06-22T09:06:23;23.20;99.90
11744;DHT22;5929;51.906;7.674;2023-06-22T09:08:50;23.30;99.90
11744;DHT22;5929;51.906;7.674;2023-06-22T09:11:17;23.40;99.90
11744;DHT22;5929;51.906;7.674;2023-06-22T09:13:43;23.30;99.90
11744;DHT22;5929;51.906;7.674;2023-06-22T09:16:13;23.30;99.90
11744;DHT22;5929;51.906;7.674;2023-06-22T09:18:40;23.40;99.90
11744;DHT22;5929;51.906;7.674;2023-06-22T09:21:07;23.60;99.90
11744;DHT22;5929;51.906;7.674;2023-06-22T09:23:34;23.70;99.90
11744;DHT22;5929;51.906;7.674;2023-06-22T09:26:01;23.80;99.90
11744;DHT22;5929;51.906;7.674;2023-06-22T09:28:28;23.90;99.90
11744;DHT22;5929;51.906;7.674;2023-06-22T09:30:55;24.10;99.90
11744;DHT22;5929;51.906;7.674;2023-06-22T09:33:25;24.10;99.90
11744;DHT22;5929;51.906;7.674;2023-06-22T09:35:52;24.40;99.90
11744;DHT22;5929;51.906;7.674;2023-06-22T09:38:18;24.50;99.90
11744;DHT22;5929;51.906;7.674;2023-06-22T09:40:45;24.80;99.90
11744;DHT22;5929;51.906;7.674;2023-06-22T09:43:12;24.80;99.90
11744;DHT22;5929;51.906;7.674;2023-06-22T09:45:39;24.90;99.90
11744;DHT22;5929;51.906;7.674;2023-06-22T09:48:06;25.00;99.90
11744;DHT22;5929;51.906;7.674;2023-06-22T09:50:34;25.00;99.90
11744;DHT22;5929;51.906;7.674;2023-06-22T09:53:01;25.10;99.90
11744;DHT22;5929;51.906;7.674;2023-06-22T09:55:27;25.20;99.90
11744;DHT22;5929;51.906;7.674;2023-06-22T09:57:57;25.30;99.90
11744;DHT22;5929;51.906;7.674;2023-06-22T10:00:23;25.30;99.90
11744;DHT22;5929;51.906;7.674;2023-06-22T10:02:54;25.10;99.90
11744;DHT22;5929;51.906;7.674;2023-06-22T10:05:21;25.20;99.90
11744;DHT22;5929;51.906;7.674;2023-06-22T10:07:49;25.10;99.90
11744;DHT22;5929;51.906;7.674;2023-06-22T10:10:16;25.10;99.90
11744;DHT22;5929;51.906;7.674;2023-06-22T10:12:45;25.30;99.90
11744;DHT22;5929;51.906;7.674;2023-06-22T10:15:13;25.30;99.90
11744;DHT22;5929;51.906;7.674;2023-06-22T10:17:39;25.40;99.90
11744;DHT22;5929;51.906;7.674;2023-06-22T10:20:07;25.40;99.80
11744;DHT22;5929;51.906;7.674;2023-06-22T10:22:38;25.30;99.30
11744;DHT22;5929;51.906;7.674;2023-06-22T10:25:07;25.10;99.90
11744;DHT22;5929;51.906;7.674;2023-06-22T10:27:34;25.10;99.90
11744;DHT22;5929;51.906;7.674;2023-06-22T10:30:01;25.40;99.70
11744;DHT22;5929;51.906;7.674;2023-06-22T10:32:30;25.70;99.80
11744;DHT22;5929;51.906;7.674;2023-06-22T10:34:57;25.80;99.00
11744;DHT22;5929;51.906;7.674;2023-06-22T10:37:24;25.80;99.20
11744;DHT22;5929;51.906;7.674;2023-06-22T10:39:51;25.70;98.90
11744;DHT22;5929;51.906;7.674;2023-06-22T10:42:19;25.60;99.10
11744;DHT22;5929;51.906;7.674;2023-06-22T10:44:46;25.60;99.10
11744;DHT22;5929;51.906;7.674;2023-06-22T10:47:13;25.70;99.10
11744;DHT22;5929;51.906;7.674;2023-06-22T10:49:40;25.80;99.80
11744;DHT22;5929;51.906;7.674;2023-06-22T10:52:08;26.00;99.20
11744;DHT22;5929;51.906;7.674;2023-06-22T10:54:36;25.80;98.50
11744;DHT22;5929;51.906;7.674;2023-06-22T10:57:03;25.90;98.60
11744;DHT22;5929;51.906;7.674;2023-06-22T10:59:31;25.80;98.80
11744;DHT22;5929;51.906;7.674;2023-06-22T11:01:58;25.90;98.90
11744;DHT22;5929;51.906;7.674;2023-06-22T11:04:25;25.80;99.70
11744;DHT22;5929;51.906;7.674;2023-06-22T11:06:52;25.90;99.60
11744;DHT22;5929;51.906;7.674;2023-06-22T11:09:19;25.90;98.90
11744;DHT22;5929;51.906;7.674;2023-06-22T11:11:46;25.80;99.00
11744;DHT22;5929;51.906;7.674;2023-06-22T11:14:16;25.70;99.20
11744;DHT22;5929;51.906;7.674;2023-06-22T11:16:46;25.90;99.10
11744;DHT22;5929;51.906;7.674;2023-06-22T11:19:13;26.10;98.80
11744;DHT22;5929;51.906;7.674;2023-06-22T11:21:40;26.20;98.60
11744;DHT22;5929;51.906;7.674;2023-06-22T11:24:07;26.40;98.70
11744;DHT22;5929;51.906;7.674;2023-06-22T11:26:34;26.60;98.70
11744;DHT22;5929;51.906;7.674;2023-06-22T11:29:01;26.80;98.10
11744;DHT22;5929;51.906;7.674;2023-06-22T11:31:30;26.90;98.40
11744;DHT22;5929;51.906;7.674;2023-06-22T11:33:58;27.00;97.50
11744;DHT22;5929;51.906;7.674;2023-06-22T11:36:25;26.60;97.90
11744;DHT22;5929;51.906;7.674;2023-06-22T11:38:52;26.30;98.20
11744;DHT22;5929;51.906;7.674;2023-06-22T11:41:19;26.40;98.30
11744;DHT22;5929;51.906;7.674;2023-06-22T11:43:46;26.50;98.30
11744;DHT22;5929;51.906;7.674;2023-06-22T11:46:13;26.40;98.00
11744;DHT22;5929;51.906;7.674;2023-06-22T11:48:40;26.20;98.20
11744;DHT22;5929;51.906;7.674;2023-06-22T11:51:08;26.10;98.60
11744;DHT22;5929;51.906;7.674;2023-06-22T11:53:35;26.10;98.40
11744;DHT22;5929;51.906;7.674;2023-06-22T11:56:01;26.10;98.40
11744;DHT22;5929;51.906;7.674;2023-06-22T11:58:28;26.10;98.80
11744;DHT22;5929;51.906;7.674;2023-06-22T12:00:55;26.10;98.80
11744;DHT22;5929;51.906;7.674;2023-06-22T12:03:22;26.10;98.50
11744;DHT22;5929;51.906;7.674;2023-06-22T12:05:50;25.70;98.70
11744;DHT22;5929;51.906;7.674;2023-06-22T12:08:18;25.60;99.50
11744;DHT22;5929;51.906;7.674;2023-06-22T12:10:45;25.60;99.60
11744;DHT22;5929;51.906;7.674;2023-06-22T12:13:12;25.40;99.70
11744;DHT22;5929;51.906;7.674;2023-06-22T12:15:39;25.40;99.60
11744;DHT22;5929;51.906;7.674;2023-06-22T12:18:06;25.40;99.70
11744;DHT22;5929;51.906;7.674;2023-06-22T12:20:34;25.30;99.80
11744;DHT22;5929;51.906;7.674;2023-06-22T12:23:01;25.20;99.80
11744;DHT22;5929;51.906;7.674;2023-06-22T12:25:29;25.00;99.90
11744;DHT22;5929;51.906;7.674;2023-06-22T12:27:56;24.90;99.90
11744;DHT22;5929;51.906;7.674;2023-06-22T12:30:23;24.80;99.90
11744;DHT22;5929;51.906;7.674;2023-06-22T12:32:50;24.80;99.90
11744;DHT22;5929;51.906;7.674;2023-06-22T12:35:17;24.70;99.90
11744;DHT22;5929;51.906;7.674;2023-06-22T12:37:44;24.50;99.90
11744;DHT22;5929;51.906;7.674;2023-06-22T12:40:11;24.40;99.90
11744;DHT22;5929;51.906;7.674;2023-06-22T12:42:40;24.20;99.90
11744;DHT22;5929;51.906;7.674;2023-06-22T12:45:08;24.10;99.90
11744;DHT22;5929;51.906;7.674;2023-06-22T12:47:35;23.80;99.90
11744;DHT22;5929;51.906;7.674;2023-06-22T12:50:05;23.60;99.90
11744;DHT22;5929;51.906;7.674;2023-06-22T12:52:32;23.40;99.90
11744;DHT22;5929;51.906;7.674;2023-06-22T12:54:58;23.20;99.90
11744;DHT22;5929;51.906;7.674;2023-06-22T12:57:25;23.00;99.90
11744;DHT22;5929;51.906;7.674;2023-06-22T12:59:53;22.80;99.90
11744;DHT22;5929;51.906;7.674;2023-06-22T13:02:20;22.60;99.90
11744;DHT22;5929;51.906;7.674;2023-06-22T13:04:47;22.60;99.90
11744;DHT22;5929;51.906;7.674;2023-06-22T13:07:14;22.40;99.90
11744;DHT22;5929;51.906;7.674;2023-06-22T13:09:41;22.20;99.90
11744;DHT22;5929;51.906;7.674;2023-06-22T13:12:08;22.10;99.90
11744;DHT22;5929;51.906;7.674;2023-06-22T13:14:35;22.20;99.90
11744;DHT22;5929;51.906;7.674;2023-06-22T13:17:03;22.20;99.90
11744;DHT22;5929;51.906;7.674;2023-06-22T13:19:30;22.20;99.90
11744;DHT22;5929;51.906;7.674;2023-06-22T13:21:58;22.20;99.90
11744;DHT22;5929;51.906;7.674;2023-06-22T13:24:25;22.10;99.90
11744;DHT22;5929;51.906;7.674;2023-06-22T13:26:52;22.10;99.90
11744;DHT22;5929;51.906;7.674;2023-06-22T13:29:21;22.00;99.90
11744;DHT22;5929;51.906;7.674;2023-06-22T13:31:48;22.00;99.90
11744;DHT22;5929;51.906;7.674;2023-06-22T13:34:16;22.00;99.90
11744;DHT22;5929;51.906;7.674;2023-06-22T13:36:43;22.10;99.90
11744;DHT22;5929;51.906;7.674;2023-06-22T13:39:11;22.10;99.90
11744;DHT22;5929;51.906;7.674;2023-06-22T13:41:38;22.00;99.90
11744;DHT22;5929;51.906;7.674;2023-06-22T13:44:05;21.90;99.90
11744;DHT22;5929;51.906;7.674;2023-06-22T13:46:34;22.00;99.90
11744;DHT22;5929;51.906;7.674;2023-06-22T13:49:01;22.10;99.90
11744;DHT22;5929;51.906;7.674;2023-06-22T13:51:29;21.90;99.90
11744;DHT22;5929;51.906;7.674;2023-06-22T13:53:56;21.90;99.90
11744;DHT22;5929;51.906;7.674;2023-06-22T13:56:22;21.90;99.90
11744;DHT22;5929;51.906;7.674;2023-06-22T13:58:49;21.90;99.90
11744;DHT22;5929;51.906;7.674;2023-06-22T14:01:16;21.90;99.90
11744;DHT22;5929;51.906;7.674;2023-06-22T14:03:43;22.00;99.90
11744;DHT22;5929;51.906;7.674;2023-06-22T14:06:11;21.90;99.90
11744;DHT22;5929;51.906;7.674;2023-06-22T14:08:39;21.90;99.90
11744;DHT22;5929;51.906;7.674;2023-06-22T14:11:06;21.90;99.90
11744;DHT22;5929;51.906;7.674;2023-06-22T14:13:32;21.80;99.90
11744;DHT22;5929;51.906;7.674;2023-06-22T14:16:01;21.80;99.90
11744;DHT22;5929;51.906;7.674;2023-06-22T14:18:29;21.90;99.90
11744;DHT22;5929;51.906;7.674;2023-06-22T14:20:56;22.00;99.90
11744;DHT22;5929;51.906;7.674;2023-06-22T14:23:23;21.90;99.90
11744;DHT22;5929;51.906;7.674;2023-06-22T14:25:51;21.90;99.90
11744;DHT22;5929;51.906;7.674;2023-06-22T14:28:18;22.00;99.90
11744;DHT22;5929;51.906;7.674;2023-06-22T14:30:44;21.90;99.90
11744;DHT22;5929;51.906;7.674;2023-06-22T14:33:13;21.80;99.90
11744;DHT22;5929;51.906;7.674;2023-06-22T14:35:40;21.80;99.90
11744;DHT22;5929;51.906;7.674;2023-06-22T14:38:07;21.90;99.90
11744;DHT22;5929;51.906;7.674;2023-06-22T14:40:34;21.90;99.90
11744;DHT22;5929;51.906;7.674;2023-06-22T14:43:02;21.90;99.90
11744;DHT22;5929;51.906;7.674;2023-06-22T14:45:29;21.90;99.90
11744;DHT22;5929;51.906;7.674;2023-06-22T14:47:56;22.10;99.90
11744;DHT22;5929;51.906;7.674;2023-06-22T14:50:22;22.10;99.90
11744;DHT22;5929;51.906;7.674;2023-06-22T14:52:49;22.30;99.90
11744;DHT22;5929;51.906;7.674;2023-06-22T14:55:16;22.40;99.90
11744;DHT22;5929;51.906;7.674;2023-06-22T14:57:43;22.40;99.90
11744;DHT22;5929;51.906;7.674;2023-06-22T15:00:12;22.40;99.90
11744;DHT22;5929;51.906;7.674;2023-06-22T15:02:41;22.30;99.90
11744;DHT22;5929;51.906;7.674;2023-06-22T15:05:08;22.30;99.90
11744;DHT22;5929;51.906;7.674;2023-06-22T15:07:35;22.20;99.90
11744;DHT22;5929;51.906;7.674;2023-06-22T15:10:02;22.10;99.90
11744;DHT22;5929;51.906;7.674;2023-06-22T15:12:29;22.10;99.90
11744;DHT22;5929;51.906;7.674;2023-06-22T15:14:56;22.00;99.90
11744;DHT22;5929;51.906;7.674;2023-06-22T15:17:24;21.80;99.90
11744;DHT22;5929;51.906;7.674;2023-06-22T15:19:54;21.80;99.90
11744;DHT22;5929;51.906;7.674;2023-06-22T15:22:21;21.80;99.90
11744;DHT22;5929;51.906;7.674;2023-06-22T15:24:51;21.70;99.90
11744;DHT22;5929;51.906;7.674;2023-06-22T15:27:18;21.70;99.90
11744;DHT22;5929;51.906;7.674;2023-06-22T15:29:45;21.80;99.90
11744;DHT22;5929;51.906;7.674;2023-06-22T15:32:12;21.70;99.90
11744;DHT22;5929;51.906;7.674;2023-06-22T15:34:41;21.70;99.90
11744;DHT22;5929;51.906;7.674;2023-06-22T15:37:08;21.70;99.90
11744;DHT22;5929;51.906;7.674;2023-06-22T15:39:34;21.80;99.90
11744;DHT22;5929;51.906;7.674;2023-06-22T15:42:01;21.80;99.90
11744;DHT22;5929;51.906;7.674;2023-06-22T15:44:28;21.70;99.90
11744;DHT22;5929;51.906;7.674;2023-06-22T15:46:55;21.80;99.90